Airfield :
LOGIN :

Register | Disclaimer

   EN    FR    IT 

 










Legend :    VFR   Marginal VFR   IFR   Intensive IFR   Very Intensive IFR
Visi :
Ceiling :
>= 8 km
>= 3000ft
5 to 8 km
1000 to 3000 ft
1500m to 5 km
500 to 1000 ft
800 to 1500m
200 to 500 ft
< 800m
< 200 ft
Symbols :   Thunderstorms  Fog  Heavy snow  Heavy precipitations  Wind > 20 kt
SIGMETs :     Misc.  Thunderstorms  Icing  Turbulence  Mountain Waves  Volcanic Ashes






- Airport Elevation : 13 ft
- IATA code : OST


EBOS - Oostend bruges Int.

CURRENT METAR :
  • 180620Z 18012KT 9999 -SHRA FEW020CB BKN040 13/10 Q1000 TEMPO 20017G27KT 3500 SHRA

EXPIRED METARs :
  • 180550Z 18012KT 150V210 9999 FEW024 BKN048 12/10 Q1001 TEMPO 20017G27KT 3500 SHRA
  • 180520Z 18012KT 9999 FEW024 BKN048 12/10 Q1001 TEMPO 20017G27KT 3500 SHRA
  • 180450Z 18012KT 9999 FEW020 BKN048 12/10 Q1002 TEMPO 20022G37KT 3500 SHRA
  • 180420Z 17009KT CAVOK 12/10 Q1002 NOSIG
  • 180350Z 17010KT CAVOK 11/10 Q1003 NOSIG

TAF TAF EBOS
Valid from the 18 at 06:00 until the 19 at 12:00 UTC


180507Z 1806/1912 21017G27KT 9999 SCT020CB SCT030
TEMPO 1806/1818 3500 SHRA BKN014CB
PROB40
TEMPO 1806/1817 22022G37KT 2000 TSRA
BECMG 1816/1818 19013KT



MET'MAP, your aeronautical weather chart ! - Copyright ORBIFLY December 2007 - Disclaimer

ORBIFLY MET'MAP TEAM :

Programming & Development : Alexandra Zaïnal
Concept & Development : Baudouin d'Aumeries
Co-Development & Prog : Marc-Olivier Méhu
Technical & hardware support : Manuel Goepfert

Contact : metmap@orbifly.com




SOURCES & CREDITS :

   NOAA